Time;durP1;ratioP1;P1;durP2;ratioP2;P2;SDS_P1;SDS_P2;PMS_P1;PMS_P2;Temp;Humidity;BMP_temperature;BMP_pressure;BME280_temperature;BME280_humidity;BME280_pressure;Samples;Min_cycle;Max_cycle;Signal;HPM_P1;HPM_P2
2022/08/25 00:00:35;;;;;;;;;;;;;;;29.49;46.65;99127.03;5052307;28;19920;-44
2022/08/25 00:03:00;;;;;;;;;;;;;;;29.35;48.48;99134.72;5053894;28;19927;-44
2022/08/25 00:05:26;;;;;;;;;;;;;;;29.50;47.93;99137.50;5050165;28;19920;-44
2022/08/25 00:07:51;;;;;;;;;;;;;;;29.27;48.99;99133.88;5053471;28;19935;-44
2022/08/25 00:10:17;;;;;;;;;;;;;;;29.31;48.60;99127.22;5051650;28;19920;-44
2022/08/25 00:12:42;;;;;;;;;;;;;;;29.44;48.88;99130.19;5051573;28;20035;-44
2022/08/25 00:15:08;;;;;;;;;;;;;;;28.97;51.11;99136.16;5050566;28;20803;-44
2022/08/25 00:17:33;;;;;;;;;;;;;;;29.07;50.17;99128.84;5051772;28;20096;-44
2022/08/25 00:19:59;;;;;;;;;;;;;;;29.11;50.66;99130.22;5052233;28;20714;-44
2022/08/25 00:22:24;;;;;;;;;;;;;;;29.05;51.67;99133.50;5053317;28;19923;-44
2022/08/25 00:24:49;;;;;;;;;;;;;;;28.87;50.11;99125.66;5053562;28;19927;-44
2022/08/25 00:27:15;;;;;;;;;;;;;;;28.89;52.06;99125.53;5051128;28;19920;-44
2022/08/25 00:29:40;;;;;;;;;;;;;;;28.31;53.66;99130.66;5050864;28;20578;-44
2022/08/25 00:32:05;;;;;;;;;;;;;;;28.60;54.02;99129.41;5051410;28;19927;-44
2022/08/25 00:34:33;;;;;;;;;;;;;;;28.00;55.27;99132.16;5051423;28;19928;-44
2022/08/25 00:36:58;;;;;;;;;;;;;;;28.73;54.27;99131.63;5052011;28;20019;-45
2022/08/25 00:39:24;;;;;;;;;;;;;;;28.25;54.35;99141.88;5052523;28;19948;-45
2022/08/25 00:41:50;;;;;;;;;;;;;;;28.18;55.87;99135.56;5052378;28;19993;-44
2022/08/25 00:44:18;;;;;;;;;;;;;;;28.74;53.12;99136.78;5052976;28;19927;-44
2022/08/25 00:46:51;;;;;;;;;;;;;;;29.31;51.03;99132.53;5051694;28;20003;-44
2022/08/25 00:49:22;;;;;;;;;;;;;;;29.47;50.43;99135.19;5052244;28;19924;-44
2022/08/25 00:51:56;;;;;;;;;;;;;;;29.25;50.07;99143.81;5050067;28;19928;-44
2022/08/25 00:54:23;;;;;;;;;;;;;;;29.92;48.54;99136.44;5052888;28;19977;-44
2022/08/25 00:56:50;;;;;;;;;;;;;;;29.54;49.82;99138.81;5047474;28;19971;-44
2022/08/25 00:59:16;;;;;;;;;;;;;;;30.08;48.52;99140.06;5049256;28;19920;-44
2022/08/25 01:01:41;;;;;;;;;;;;;;;30.50;46.08;99133.63;5049946;28;19928;-44
2022/08/25 01:04:06;;;;;;;;;;;;;;;31.42;44.08;99128.34;5053116;28;20018;-44
2022/08/25 01:06:32;;;;;;;;;;;;;;;30.97;45.00;99140.66;5051420;28;19924;-44
2022/08/25 01:08:57;;;;;;;;;;;;;;;30.79;45.02;99138.25;5049377;28;20405;-43
2022/08/25 01:11:23;;;;;;;;;;;;;;;30.15;47.38;99130.41;5049587;28;19931;-44
2022/08/25 01:13:50;;;;;;;;;;;;;;;30.90;45.75;99129.91;5052272;28;19925;-44
2022/08/25 01:16:15;;;;;;;;;;;;;;;30.43;47.37;99125.50;5047954;28;19924;-44
2022/08/25 01:18:41;;;;;;;;;;;;;;;30.43;47.30;99129.00;5051173;28;19928;-44
2022/08/25 01:21:07;;;;;;;;;;;;;;;30.52;48.95;99128.94;5051752;28;20681;-43
2022/08/25 01:23:33;;;;;;;;;;;;;;;30.44;48.64;99130.63;5051893;28;19925;-44
2022/08/25 01:26:03;;;;;;;;;;;;;;;31.06;47.10;99128.94;5050778;28;19927;-44
2022/08/25 01:28:29;;;;;;;;;;;;;;;31.28;46.51;99129.94;5051395;28;20090;-44
2022/08/25 01:30:54;;;;;;;;;;;;;;;30.98;47.08;99127.19;5048675;28;20409;-44
2022/08/25 01:33:19;;;;;;;;;;;;;;;30.96;47.40;99131.03;5052861;28;20479;-44
2022/08/25 01:35:45;;;;;;;;;;;;;;;30.48;49.89;99131.13;5051005;28;19920;-44
2022/08/25 01:38:10;;;;;;;;;;;;;;;29.63;54.40;99141.44;5050710;28;19955;-44
2022/08/25 01:40:36;;;;;;;;;;;;;;;30.07;52.70;99139.22;5049957;28;20369;-44
2022/08/25 01:43:04;;;;;;;;;;;;;;;29.94;53.09;99136.28;5052570;28;20035;-44
2022/08/25 01:45:29;;;;;;;;;;;;;;;29.92;52.63;99135.63;5048998;28;20605;-44
2022/08/25 01:47:55;;;;;;;;;;;;;;;29.88;52.64;99139.59;5050422;28;20011;-44
2022/08/25 01:50:20;;;;;;;;;;;;;;;29.87;52.47;99141.44;5050294;28;19993;-44
2022/08/25 01:53:09;;;;;;;;;;;;;;;29.92;52.03;99132.97;5046717;28;19955;-44
2022/08/25 01:55:50;;;;;;;;;;;;;;;30.47;50.61;99133.94;5042776;28;19928;-44
2022/08/25 01:58:16;;;;;;;;;;;;;;;30.20;49.75;99138.69;5051070;28;19920;-43
2022/08/25 02:00:44;;;;;;;;;;;;;;;30.57;48.55;99134.56;5054887;28;19949;-44
2022/08/25 02:03:09;;;;;;;;;;;;;;;30.47;49.40;99147.22;5054972;28;19924;-44
2022/08/25 02:05:34;;;;;;;;;;;;;;;30.75;49.23;99143.09;5054983;28;19931;-44
2022/08/25 02:08:00;;;;;;;;;;;;;;;30.72;50.02;99130.13;5054747;28;19921;-44
2022/08/25 02:10:26;;;;;;;;;;;;;;;30.75;49.23;99143.09;5056937;28;19919;-44
2022/08/25 02:12:51;;;;;;;;;;;;;;;30.67;49.69;99137.00;5054541;28;19978;-44
2022/08/25 02:15:16;;;;;;;;;;;;;;;30.62;50.80;99148.16;5055887;28;19920;-43
2022/08/25 02:17:42;;;;;;;;;;;;;;;30.56;51.07;99138.22;5054452;28;19931;-44
2022/08/25 02:20:08;;;;;;;;;;;;;;;30.44;49.74;99141.25;5057038;28;19916;-44
2022/08/25 02:22:33;;;;;;;;;;;;;;;30.26;51.78;99131.84;5053532;28;20749;-44
2022/08/25 02:24:58;;;;;;;;;;;;;;;30.33;51.53;99128.34;5055420;28;19917;-44
2022/08/25 02:27:24;;;;;;;;;;;;;;;30.37;51.68;99135.00;5053761;28;19927;-43
2022/08/25 02:29:49;;;;;;;;;;;;;;;30.30;52.65;99131.38;5054216;28;19920;-44
2022/08/25 02:32:14;;;;;;;;;;;;;;;30.13;50.71;99127.09;5054472;28;19986;-43
2022/08/25 02:34:40;;;;;;;;;;;;;;;30.30;52.52;99134.03;5055013;28;19968;-44
2022/08/25 02:37:05;;;;;;;;;;;;;;;30.00;52.79;99133.78;5055114;28;19942;-43
2022/08/25 02:39:30;;;;;;;;;;;;;;;29.24;54.59;99128.88;5054666;28;19960;-43
2022/08/25 02:41:56;;;;;;;;;;;;;;;28.89;57.31;99144.06;5055629;28;20799;-43
2022/08/25 02:44:21;;;;;;;;;;;;;;;28.61;57.32;99139.06;5053582;28;20293;-44
2022/08/25 02:46:47;;;;;;;;;;;;;;;29.48;56.23;99136.84;5053266;28;20331;-43
2022/08/25 02:49:12;;;;;;;;;;;;;;;29.75;56.29;99140.16;5055548;28;20051;-44
2022/08/25 02:51:38;;;;;;;;;;;;;;;29.72;55.05;99135.16;5053657;28;20015;-44
2022/08/25 02:54:03;;;;;;;;;;;;;;;29.74;55.73;99133.16;5054455;28;20023;-44
2022/08/25 02:56:29;;;;;;;;;;;;;;;29.56;54.20;99126.22;5052721;28;19963;-44
2022/08/25 02:58:54;;;;;;;;;;;;;;;29.32;55.75;99129.72;5055348;28;19930;-44
2022/08/25 03:01:20;;;;;;;;;;;;;;;29.67;55.41;99134.81;5054399;28;20866;-43
2022/08/25 03:03:45;;;;;;;;;;;;;;;29.02;57.46;99133.00;5052785;28;20429;-43
2022/08/25 03:06:12;;;;;;;;;;;;;;;29.02;56.63;99127.69;5054096;28;19926;-43
2022/08/25 03:08:37;;;;;;;;;;;;;;;28.57;58.65;99129.75;5052613;28;20887;-43
2022/08/25 03:11:03;;;;;;;;;;;;;;;29.05;59.59;99132.66;5052853;28;19927;-43
2022/08/25 03:13:29;;;;;;;;;;;;;;;28.95;60.09;99130.19;5052721;28;20695;-43
2022/08/25 03:15:54;;;;;;;;;;;;;;;28.69;60.98;99136.44;5051630;28;19920;-43
2022/08/25 03:18:19;;;;;;;;;;;;;;;27.90;65.45;99125.16;5054895;28;20384;-43
2022/08/25 03:20:45;;;;;;;;;;;;;;;27.61;67.85;99125.44;5052995;28;20774;-43
2022/08/25 03:23:10;;;;;;;;;;;;;;;27.21;68.78;99133.88;5053797;28;19946;-43
2022/08/25 03:28:21;;;;;;;;;;;;;;;27.73;67.51;99118.91;5054541;28;19962;-43
2022/08/25 03:30:47;;;;;;;;;;;;;;;27.77;68.40;99127.34;5054168;28;19920;-43
2022/08/25 03:33:12;;;;;;;;;;;;;;;28.39;65.00;99121.06;5054154;28;20286;-43
2022/08/25 03:35:37;;;;;;;;;;;;;;;28.21;66.22;99116.69;5052597;28;19974;-43
2022/08/25 03:38:03;;;;;;;;;;;;;;;28.57;64.19;99114.69;5054012;28;19916;-43
2022/08/25 03:40:28;;;;;;;;;;;;;;;28.33;65.00;99111.94;5051791;28;20052;-43
2022/08/25 03:42:55;;;;;;;;;;;;;;;28.25;66.72;99110.09;5052079;28;20046;-43
2022/08/25 03:45:21;;;;;;;;;;;;;;;27.47;69.14;99110.97;5053233;28;19917;-43
2022/08/25 03:47:47;;;;;;;;;;;;;;;27.09;70.84;99112.94;5052922;28;19920;-43
2022/08/25 03:50:13;;;;;;;;;;;;;;;28.14;70.28;99102.44;5051584;28;19916;-43
2022/08/25 03:52:38;;;;;;;;;;;;;;;27.46;71.82;99103.16;5051413;28;19970;-43
2022/08/25 03:55:05;;;;;;;;;;;;;;;27.16;73.21;99093.84;5053448;28;19999;-43
2022/08/25 03:57:30;;;;;;;;;;;;;;;27.26;73.39;99092.81;5052242;28;20411;-43
2022/08/25 03:59:55;;;;;;;;;;;;;;;27.62;71.85;99087.44;5052591;28;19917;-43
2022/08/25 04:02:20;;;;;;;;;;;;;;;27.83;71.23;99094.16;5051507;28;19927;-43
2022/08/25 04:04:46;;;;;;;;;;;;;;;27.97;68.16;99092.78;5049231;28;19920;-43
2022/08/25 04:07:11;;;;;;;;;;;;;;;27.60;72.41;99097.34;5052365;28;20446;-43
2022/08/25 04:09:36;;;;;;;;;;;;;;;28.27;69.24;99097.50;5053896;28;19916;-43
2022/08/25 04:12:02;;;;;;;;;;;;;;;27.79;72.04;99098.94;5054057;28;20385;-43
2022/08/25 04:14:27;;;;;;;;;;;;;;;28.17;71.84;99099.47;5052359;28;19924;-43
2022/08/25 04:16:52;;;;;;;;;;;;;;;28.43;69.29;99101.22;5051686;28;21203;-43
2022/08/25 04:19:17;;;;;;;;;;;;;;;28.62;68.42;99105.41;5051342;28;19979;-43
2022/08/25 04:21:43;;;;;;;;;;;;;;;28.49;67.55;99105.91;5054065;28;19916;-43
2022/08/25 04:24:09;;;;;;;;;;;;;;;28.35;69.90;99104.66;5053125;28;19923;-43
2022/08/25 04:26:36;;;;;;;;;;;;;;;28.54;68.31;99090.34;5053126;28;20790;-43
2022/08/25 04:29:02;;;;;;;;;;;;;;;28.66;69.33;99091.69;5051914;28;19928;-43
2022/08/25 04:31:28;;;;;;;;;;;;;;;28.63;69.97;99084.06;5052722;28;19916;-43
2022/08/25 04:33:53;;;;;;;;;;;;;;;28.58;69.70;99083.75;5053190;28;20065;-43
2022/08/25 04:36:18;;;;;;;;;;;;;;;28.19;69.85;99091.34;5051872;28;20143;-43
2022/08/25 04:38:44;;;;;;;;;;;;;;;28.05;74.26;99087.50;5051675;28;20432;-43
2022/08/25 04:41:10;;;;;;;;;;;;;;;27.85;72.95;99087.75;5051489;28;19925;-43
2022/08/25 04:43:36;;;;;;;;;;;;;;;27.50;77.10;99084.19;5051827;28;19951;-43
2022/08/25 04:46:05;;;;;;;;;;;;;;;26.63;80.76;99088.41;5049163;28;20392;-44
2022/08/25 04:48:31;;;;;;;;;;;;;;;26.72;82.25;99084.03;5050563;28;20342;-43
2022/08/25 04:50:56;;;;;;;;;;;;;;;25.97;85.29;99078.06;5053497;28;19924;-43
2022/08/25 04:53:22;;;;;;;;;;;;;;;26.42;85.58;99075.44;5051201;28;19928;-43
2022/08/25 04:55:47;;;;;;;;;;;;;;;25.58;87.99;99078.16;5052320;28;19920;-43
2022/08/25 04:58:13;;;;;;;;;;;;;;;25.75;89.94;99089.75;5051663;28;20826;-43
2022/08/25 05:00:38;;;;;;;;;;;;;;;26.03;87.08;99077.47;5054047;28;19920;-43
2022/08/25 05:03:04;;;;;;;;;;;;;;;26.79;86.91;99082.44;5053909;28;20018;-43
2022/08/25 05:05:29;;;;;;;;;;;;;;;27.37;81.28;99077.66;5052065;28;19927;-43
2022/08/25 05:07:55;;;;;;;;;;;;;;;27.74;81.55;99080.06;5051093;28;19917;-43
2022/08/25 05:10:20;;;;;;;;;;;;;;;26.80;83.67;99085.91;5051846;28;19931;-44
2022/08/25 05:12:46;;;;;;;;;;;;;;;28.05;79.28;99076.91;5053304;28;19927;-43
2022/08/25 05:17:55;;;;;;;;;;;;;;;28.73;76.73;99076.78;5052654;28;19923;-43
2022/08/25 05:20:20;;;;;;;;;;;;;;;28.71;75.97;99078.75;5053369;28;19955;-43
2022/08/25 05:22:46;;;;;;;;;;;;;;;28.87;77.90;99075.31;5052203;28;19924;-44
2022/08/25 05:25:13;;;;;;;;;;;;;;;29.03;76.55;99071.84;5052189;28;19916;-43
2022/08/25 05:27:38;;;;;;;;;;;;;;;28.75;76.81;99082.75;5050723;28;20475;-44
2022/08/25 05:30:04;;;;;;;;;;;;;;;28.95;77.86;99085.09;5054026;28;20015;-43
2022/08/25 05:32:29;;;;;;;;;;;;;;;29.15;76.77;99086.47;5052293;28;20011;-43
2022/08/25 05:34:54;;;;;;;;;;;;;;;28.44;75.46;99089.63;5053726;28;19924;-44
2022/08/25 05:37:19;;;;;;;;;;;;;;;27.40;82.89;99099.34;5056224;28;19955;-44
2022/08/25 05:39:45;;;;;;;;;;;;;;;28.12;81.14;99088.50;5057350;28;19916;-43
2022/08/25 05:42:10;;;;;;;;;;;;;;;28.30;82.37;99091.88;5056862;28;19927;-43
2022/08/25 05:44:35;;;;;;;;;;;;;;;27.34;87.22;99089.38;5057710;28;19928;-44
2022/08/25 05:47:00;;;;;;;;;;;;;;;27.52;88.94;99087.50;5056392;28;19916;-44
2022/08/25 05:49:26;;;;;;;;;;;;;;;27.22;91.10;99090.63;5057298;28;19991;-44
2022/08/25 05:51:51;;;;;;;;;;;;;;;27.77;86.40;99079.72;5057225;28;19985;-44
2022/08/25 05:54:16;;;;;;;;;;;;;;;27.19;89.96;99077.69;5056564;28;19967;-44
2022/08/25 05:56:41;;;;;;;;;;;;;;;27.05;92.25;99074.59;5055813;28;19920;-44
2022/08/25 05:59:07;;;;;;;;;;;;;;;26.96;92.64;99075.50;5055901;28;20595;-43
2022/08/25 06:04:16;;;;;;;;;;;;;;;26.86;94.80;99075.56;5056347;28;19923;-44
2022/08/25 06:06:42;;;;;;;;;;;;;;;26.91;94.56;99078.63;5055750;28;19920;-44
2022/08/25 06:09:08;;;;;;;;;;;;;;;27.17;92.73;99072.53;5055049;28;19916;-44
2022/08/25 06:11:33;;;;;;;;;;;;;;;27.21;93.25;99070.44;5057080;28;19920;-44
2022/08/25 06:13:59;;;;;;;;;;;;;;;27.81;90.41;99065.19;5056907;28;19986;-44
2022/08/25 06:16:24;;;;;;;;;;;;;;;27.07;93.20;99067.34;5056262;28;20463;-44
2022/08/25 06:18:49;;;;;;;;;;;;;;;27.89;92.43;99067.91;5057103;28;19916;-44
2022/08/25 06:21:16;;;;;;;;;;;;;;;27.23;93.96;99064.03;5055734;28;19942;-44
2022/08/25 06:23:41;;;;;;;;;;;;;;;27.16;95.36;99062.09;5056549;28;19923;-44
2022/08/25 06:26:09;;;;;;;;;;;;;;;27.02;94.92;99058.19;5055345;28;19916;-44
2022/08/25 06:28:34;;;;;;;;;;;;;;;27.14;94.66;99056.97;5056906;28;19954;-44
2022/08/25 06:31:00;;;;;;;;;;;;;;;27.16;94.16;99059.47;5055631;28;20694;-45
2022/08/25 06:36:27;;;;;;;;;;;;;;;27.85;91.74;99060.44;5056292;28;21167;-45
2022/08/25 06:38:53;;;;;;;;;;;;;;;27.67;93.52;99058.69;5055449;28;19917;-44
2022/08/25 06:41:18;;;;;;;;;;;;;;;27.42;94.39;99063.00;5056623;28;19924;-44
2022/08/25 06:43:44;;;;;;;;;;;;;;;27.99;91.54;99061.69;5056150;28;19917;-44
2022/08/25 06:46:13;;;;;;;;;;;;;;;27.71;91.52;99065.31;5055008;28;19916;-45
2022/08/25 06:48:38;;;;;;;;;;;;;;;28.27;91.77;99060.44;5055471;28;19916;-44
2022/08/25 06:51:04;;;;;;;;;;;;;;;28.50;90.01;99055.38;5055712;28;20529;-44
2022/08/25 06:53:30;;;;;;;;;;;;;;;28.27;89.82;99057.78;5055900;28;20015;-45
2022/08/25 06:55:56;;;;;;;;;;;;;;;28.07;90.99;99065.16;5055935;28;19934;-45
2022/08/25 06:58:21;;;;;;;;;;;;;;;28.36;91.16;99064.75;5053925;28;20062;-44
2022/08/25 07:00:47;;;;;;;;;;;;;;;28.92;89.38;99058.91;5056235;28;20460;-45
2022/08/25 07:03:12;;;;;;;;;;;;;;;28.17;90.38;99065.06;5055889;28;20539;-45
2022/08/25 07:05:37;;;;;;;;;;;;;;;28.31;90.41;99077.66;5055351;28;21055;-44
2022/08/25 07:08:02;;;;;;;;;;;;;;;29.53;86.87;99057.53;5055123;28;20329;-44
2022/08/25 07:10:27;;;;;;;;;;;;;;;28.59;88.82;99069.47;5055873;28;20370;-45
2022/08/25 07:12:53;;;;;;;;;;;;;;;29.73;83.67;99054.53;5055528;28;19983;-44
2022/08/25 07:15:18;;;;;;;;;;;;;;;29.92;84.42;99054.13;5055594;28;19983;-45
2022/08/25 07:17:43;;;;;;;;;;;;;;;29.92;82.82;99055.97;5035819;28;19917;-44
2022/08/25 07:20:09;;;;;;;;;;;;;;;31.40;78.52;99056.63;5055751;28;20011;-44
2022/08/25 07:22:34;;;;;;;;;;;;;;;30.41;82.17;99064.56;5055807;28;19924;-45
2022/08/25 07:24:59;;;;;;;;;;;;;;;30.08;82.58;99076.31;5056256;28;19973;-45
2022/08/25 07:27:25;;;;;;;;;;;;;;;29.87;83.06;99069.75;5054363;28;20016;-45
2022/08/25 07:29:52;;;;;;;;;;;;;;;30.34;79.99;99066.25;5055453;28;20046;-44
2022/08/25 07:32:17;;;;;;;;;;;;;;;30.09;82.45;99062.06;5055006;28;21136;-45
2022/08/25 07:37:26;;;;;;;;;;;;;;;31.13;77.81;99058.06;5044344;28;20005;-45
2022/08/25 07:39:52;;;;;;;;;;;;;;;31.60;73.74;99059.63;5054110;28;20401;-45
2022/08/25 07:42:17;;;;;;;;;;;;;;;30.37;78.59;99065.91;5054583;28;20403;-44
2022/08/25 07:44:42;;;;;;;;;;;;;;;32.32;71.33;99063.44;5054829;28;19924;-44
2022/08/25 07:47:08;;;;;;;;;;;;;;;31.97;72.93;99068.53;5054364;28;19916;-45
2022/08/25 07:49:33;;;;;;;;;;;;;;;32.78;66.80;99059.63;5054578;28;20836;-45
2022/08/25 07:51:58;;;;;;;;;;;;;;;33.94;64.08;99060.91;5045415;28;19995;-42
2022/08/25 07:54:26;;;;;;;;;;;;;;;32.28;71.17;99067.50;5046210;28;19925;-45
2022/08/25 07:56:51;;;;;;;;;;;;;;;30.74;76.19;99072.31;5045419;28;19977;-46
2022/08/25 07:59:16;;;;;;;;;;;;;;;31.99;68.97;99069.19;5047729;28;19920;-45
2022/08/25 08:01:41;;;;;;;;;;;;;;;32.03;69.92;99073.13;5049279;28;20614;-46
2022/08/25 08:04:07;;;;;;;;;;;;;;;33.66;62.96;99052.94;5052045;28;19960;-46
2022/08/25 08:06:32;;;;;;;;;;;;;;;33.32;62.19;99057.25;5052177;28;19920;-45
2022/08/25 08:08:58;;;;;;;;;;;;;;;34.26;56.22;99057.72;5054271;28;20844;-47
2022/08/25 08:11:27;;;;;;;;;;;;;;;33.16;64.38;99062.84;5053449;28;19979;-46
2022/08/25 08:13:53;;;;;;;;;;;;;;;33.54;59.32;99065.16;5053315;28;19928;-45
2022/08/25 08:16:20;;;;;;;;;;;;;;;34.48;54.15;99056.56;5050629;28;19967;-46
2022/08/25 08:18:45;;;;;;;;;;;;;;;33.96;55.95;99058.00;5051485;28;19994;-44
2022/08/25 08:21:15;;;;;;;;;;;;;;;35.20;53.83;99059.56;5053311;28;20385;-45
2022/08/25 08:23:40;;;;;;;;;;;;;;;33.59;59.69;99068.09;5053835;28;19952;-46
2022/08/25 08:26:05;;;;;;;;;;;;;;;35.26;50.83;99052.53;5051794;28;20003;-48
2022/08/25 08:28:31;;;;;;;;;;;;;;;35.13;50.23;99058.75;5051587;28;20571;-47
2022/08/25 08:30:56;;;;;;;;;;;;;;;36.05;48.34;99048.84;5051188;28;19993;-46
2022/08/25 08:33:21;;;;;;;;;;;;;;;33.39;56.45;99057.28;5052815;28;20027;-46
2022/08/25 08:35:47;;;;;;;;;;;;;;;34.48;52.42;99051.22;5051997;28;19920;-46
2022/08/25 08:38:12;;;;;;;;;;;;;;;35.82;49.32;99044.00;5051336;28;19991;-47
2022/08/25 08:40:41;;;;;;;;;;;;;;;33.82;54.19;99045.63;5053268;28;20402;-43
2022/08/25 08:43:07;;;;;;;;;;;;;;;34.53;49.05;99038.06;5051290;28;20009;-48
2022/08/25 08:45:33;;;;;;;;;;;;;;;36.05;46.69;99035.44;5046642;28;20018;-46
2022/08/25 08:48:01;;;;;;;;;;;;;;;35.54;45.59;99033.56;5051484;28;19950;-46
2022/08/25 08:50:32;;;;;;;;;;;;;;;35.97;45.40;99035.69;5053360;28;20061;-47
2022/08/25 08:52:57;;;;;;;;;;;;;;;34.89;47.08;99036.06;5053186;28;19936;-47
2022/08/25 08:55:42;;;;;;;;;;;;;;;33.42;49.94;99035.53;5052487;28;20369;-45
2022/08/25 08:58:14;;;;;;;;;;;;;;;35.26;44.11;99026.59;5049105;28;20392;-46
2022/08/25 09:00:41;;;;;;;;;;;;;;;36.44;41.50;99028.25;5054292;28;19917;-46
2022/08/25 09:03:07;;;;;;;;;;;;;;;35.78;41.39;99030.19;5053214;28;19990;-48
2022/08/25 09:05:35;;;;;;;;;;;;;;;36.64;40.34;99028.13;5051875;28;19921;-46
2022/08/25 09:08:05;;;;;;;;;;;;;;;36.47;39.71;99021.63;5054019;28;19971;-47
2022/08/25 09:10:38;;;;;;;;;;;;;;;36.66;37.75;99019.88;5053805;28;19916;-45
2022/08/25 09:13:36;;;;;;;;;;;;;;;37.92;35.38;99012.44;5052008;28;19928;-45
2022/08/25 09:19:11;;;;;;;;;;;;;;;34.06;43.01;99015.72;5051311;28;20038;-48
2022/08/25 09:21:55;;;;;;;;;;;;;;;36.30;39.18;99010.59;5053320;28;19920;-48
2022/08/25 09:24:40;;;;;;;;;;;;;;;34.83;40.03;99005.63;5052144;28;19975;-46
2022/08/25 09:27:09;;;;;;;;;;;;;;;37.24;36.11;99003.47;5052661;28;19954;-46
2022/08/25 09:29:43;;;;;;;;;;;;;;;37.94;36.63;99000.41;5051907;28;19920;-46
2022/08/25 09:32:09;;;;;;;;;;;;;;;36.93;36.08;98994.47;5051447;28;19920;-46
2022/08/25 09:34:34;;;;;;;;;;;;;;;36.25;36.31;98999.72;5053166;28;20537;-47
2022/08/25 09:37:00;;;;;;;;;;;;;;;36.27;37.69;99001.13;5052718;28;20617;-46
2022/08/25 09:39:25;;;;;;;;;;;;;;;37.64;36.80;98989.63;5051740;28;20717;-46
2022/08/25 09:41:51;;;;;;;;;;;;;;;34.86;41.34;98985.66;5050722;28;20039;-46
2022/08/25 09:44:23;;;;;;;;;;;;;;;37.26;37.46;98978.03;5052670;28;20176;-45
2022/08/25 09:47:06;;;;;;;;;;;;;;;35.27;41.78;98989.94;5051137;28;20452;-46
2022/08/25 09:49:39;;;;;;;;;;;;;;;36.19;40.44;98988.78;5051941;28;20307;-46
2022/08/25 09:52:22;;;;;;;;;;;;;;;35.04;44.75;98979.66;5052835;28;19955;-45
2022/08/25 09:54:49;;;;;;;;;;;;;;;35.19;43.68;98973.09;5051890;28;19929;-46
2022/08/25 09:57:26;;;;;;;;;;;;;;;34.73;45.15;98973.91;5049870;28;19920;-46
2022/08/25 09:59:52;;;;;;;;;;;;;;;36.26;41.43;98963.78;5052091;28;19916;-46
2022/08/25 10:02:25;;;;;;;;;;;;;;;36.12;41.09;98961.19;5052821;28;19923;-45
2022/08/25 10:04:51;;;;;;;;;;;;;;;36.38;42.68;98954.00;5052770;28;19923;-45
2022/08/25 10:07:18;;;;;;;;;;;;;;;39.61;34.90;98939.25;5051440;28;19916;-45
2022/08/25 10:09:44;;;;;;;;;;;;;;;36.18;40.40;98944.25;5050415;28;20399;-47
2022/08/25 10:12:17;;;;;;;;;;;;;;;35.69;42.90;98939.56;5051512;28;19916;-46
2022/08/25 10:14:42;;;;;;;;;;;;;;;36.74;40.70;98937.22;5050332;28;19935;-45
2022/08/25 10:17:12;;;;;;;;;;;;;;;37.98;38.53;98936.25;5051276;28;19917;-46
2022/08/25 10:19:37;;;;;;;;;;;;;;;36.94;37.09;98934.34;5050133;28;19964;-46
2022/08/25 10:22:04;;;;;;;;;;;;;;;36.69;40.50;98933.56;5055904;28;20845;-45
2022/08/25 10:24:29;;;;;;;;;;;;;;;37.85;38.66;98927.31;5054026;28;19927;-45
2022/08/25 10:27:00;;;;;;;;;;;;;;;37.88;40.00;98929.53;5054817;28;19917;-46
2022/08/25 10:29:25;;;;;;;;;;;;;;;35.90;40.76;98930.38;5054875;28;20014;-46
2022/08/25 10:31:50;;;;;;;;;;;;;;;36.67;40.39;98924.91;5056353;28;20907;-46
2022/08/25 10:34:22;;;;;;;;;;;;;;;38.53;39.43;98914.56;5048380;28;19994;-45
2022/08/25 10:36:47;;;;;;;;;;;;;;;37.27;39.66;98917.09;5053162;28;19931;-45
2022/08/25 10:39:31;;;;;;;;;;;;;;;38.49;37.95;98903.41;5055403;28;19920;-46
2022/08/25 10:41:59;;;;;;;;;;;;;;;37.45;40.28;98906.34;5055699;28;19982;-47
2022/08/25 10:47:36;;;;;;;;;;;;;;;35.63;45.25;98898.38;5050621;28;20501;-46
2022/08/25 10:50:07;;;;;;;;;;;;;;;38.21;38.92;98901.38;5052303;28;19920;-46
2022/08/25 10:52:35;;;;;;;;;;;;;;;38.71;36.24;98886.69;5051166;28;19931;-45
2022/08/25 10:55:12;;;;;;;;;;;;;;;38.89;37.20;98888.44;5052498;28;19971;-46
2022/08/25 10:57:49;;;;;;;;;;;;;;;39.54;36.15;98887.38;5052612;28;19947;-46
2022/08/25 11:00:16;;;;;;;;;;;;;;;38.96;36.23;98886.47;5055391;28;19923;-48
2022/08/25 11:03:00;;;;;;;;;;;;;;;38.55;37.02;98879.31;5039529;28;19959;-46
2022/08/25 11:05:29;;;;;;;;;;;;;;;40.17;35.61;98880.16;5053333;28;19920;-45
2022/08/25 11:07:58;;;;;;;;;;;;;;;39.55;34.89;98882.78;5052667;28;19916;-46
2022/08/25 11:10:24;;;;;;;;;;;;;;;37.31;39.37;98877.97;5053136;28;19917;-46
2022/08/25 11:13:00;;;;;;;;;;;;;;;36.42;42.11;98874.75;5054214;28;20390;-47
2022/08/25 11:15:25;;;;;;;;;;;;;;;38.29;39.54;98871.44;5053006;28;19916;-46
2022/08/25 11:17:52;;;;;;;;;;;;;;;38.19;38.56;98873.91;5053650;28;19954;-46
2022/08/25 11:20:18;;;;;;;;;;;;;;;39.78;35.20;98869.22;5053046;28;20469;-46
2022/08/25 11:22:45;;;;;;;;;;;;;;;39.40;34.70;98859.09;5053525;28;19923;-54
2022/08/25 11:25:17;;;;;;;;;;;;;;;36.62;38.62;98874.59;5055663;28;19916;-46
2022/08/25 11:27:44;;;;;;;;;;;;;;;40.40;33.08;98864.88;5053832;28;19924;-46
2022/08/25 11:30:11;;;;;;;;;;;;;;;41.28;32.71;98862.28;5055240;28;19927;-46
2022/08/25 11:32:36;;;;;;;;;;;;;;;40.72;33.54;98868.59;5055423;28;19912;-46
2022/08/25 11:35:03;;;;;;;;;;;;;;;37.68;36.43;98872.59;5053317;28;19921;-46
2022/08/25 11:37:29;;;;;;;;;;;;;;;40.03;34.75;98870.72;5052417;28;19921;-46
2022/08/25 11:39:54;;;;;;;;;;;;;;;39.06;34.68;98861.63;5037201;28;19923;-46
2022/08/25 11:42:19;;;;;;;;;;;;;;;38.01;37.40;98860.53;5055209;28;19969;-48
2022/08/25 11:44:45;;;;;;;;;;;;;;;40.28;34.04;98865.78;5055472;28;19916;-49
2022/08/25 11:47:22;;;;;;;;;;;;;;;40.31;32.63;98859.88;5053731;28;20329;-46
2022/08/25 11:49:50;;;;;;;;;;;;;;;40.62;33.11;98856.81;5054752;28;20098;-45
2022/08/25 11:52:38;;;;;;;;;;;;;;;39.63;34.37;98867.06;5054969;28;19916;-48
2022/08/25 11:55:13;;;;;;;;;;;;;;;38.15;35.55;98851.19;5045877;28;20341;-45
2022/08/25 11:57:38;;;;;;;;;;;;;;;38.22;36.97;98864.53;5053065;28;19912;-46
2022/08/25 12:00:07;;;;;;;;;;;;;;;38.66;33.82;98863.19;5053750;28;19927;-46
2022/08/25 12:02:33;;;;;;;;;;;;;;;38.02;38.90;98864.84;5054945;28;19931;-46
2022/08/25 12:04:59;;;;;;;;;;;;;;;37.80;35.73;98856.50;5055036;28;19916;-46
2022/08/25 12:07:25;;;;;;;;;;;;;;;38.18;37.13;98868.75;5053787;28;19916;-46
2022/08/25 12:09:52;;;;;;;;;;;;;;;39.93;33.28;98861.41;5053696;28;19916;-46
2022/08/25 12:12:27;;;;;;;;;;;;;;;38.68;35.79;98861.09;5054792;28;19916;-46
2022/08/25 12:14:52;;;;;;;;;;;;;;;39.11;33.43;98848.25;5054226;28;19927;-46
2022/08/25 12:17:22;;;;;;;;;;;;;;;41.22;33.32;98847.06;5054010;28;19916;-48
2022/08/25 12:19:49;;;;;;;;;;;;;;;40.93;33.69;98842.66;5054559;28;20679;-46
2022/08/25 12:22:14;;;;;;;;;;;;;;;38.74;35.03;98853.09;5054584;28;19923;-46
2022/08/25 12:24:42;;;;;;;;;;;;;;;38.27;35.86;98841.28;5053520;28;19917;-46
2022/08/25 12:27:26;;;;;;;;;;;;;;;39.22;33.57;98843.88;5053838;28;19917;-47
2022/08/25 12:30:12;;;;;;;;;;;;;;;39.62;32.34;98834.94;5054409;28;20030;-47
2022/08/25 12:32:37;;;;;;;;;;;;;;;39.53;33.95;98835.34;5053694;28;20936;-46
2022/08/25 12:35:15;;;;;;;;;;;;;;;40.29;32.14;98837.72;5053989;28;19935;-46
2022/08/25 12:38:00;;;;;;;;;;;;;;;39.34;34.44;98833.88;5053087;28;20007;-47
2022/08/25 12:40:30;;;;;;;;;;;;;;;38.29;35.50;98839.16;5053594;28;19947;-45
2022/08/25 12:43:03;;;;;;;;;;;;;;;39.14;33.67;98836.16;5053652;28;20152;-47
2022/08/25 12:45:37;;;;;;;;;;;;;;;40.75;32.73;98834.88;5053849;28;19920;-46
2022/08/25 12:48:21;;;;;;;;;;;;;;;41.28;31.50;98835.25;5052333;28;20645;-46
2022/08/25 12:50:49;;;;;;;;;;;;;;;39.50;33.75;98826.91;5053692;28;19935;-46
2022/08/25 12:53:17;;;;;;;;;;;;;;;38.28;36.07;98840.22;5053062;28;20031;-46
2022/08/25 12:55:46;;;;;;;;;;;;;;;38.05;35.84;98829.44;5037785;28;20327;-46
2022/08/25 12:58:12;;;;;;;;;;;;;;;41.13;31.02;98823.22;5052209;28;19958;-47
2022/08/25 13:00:57;;;;;;;;;;;;;;;39.77;32.92;98829.00;5053869;28;20011;-46
2022/08/25 13:03:41;;;;;;;;;;;;;;;39.52;32.71;98822.91;5041633;28;19969;-47
2022/08/25 13:06:25;;;;;;;;;;;;;;;41.34;29.98;98818.03;5052568;28;19955;-47
2022/08/25 13:09:23;;;;;;;;;;;;;;;41.66;29.37;98811.88;5053364;28;19916;-46